createdAt,value
2019-05-02T00:01:13.440Z,100384.11
2019-05-02T00:03:42.951Z,100379.99
2019-05-02T00:06:11.943Z,100375.63
2019-05-02T00:08:40.914Z,100380.93
2019-05-02T00:11:10.214Z,100383.56
2019-05-02T00:13:38.979Z,100368.05
2019-05-02T00:16:09.076Z,100375.66
2019-05-02T00:18:39.040Z,100371.89
2019-05-02T00:21:07.838Z,100370.28
2019-05-02T00:23:36.581Z,100373.03
2019-05-02T00:26:05.411Z,100373.09
2019-05-02T00:28:34.017Z,100376.09
2019-05-02T00:31:07.358Z,100372.75
2019-05-02T00:33:35.878Z,100367.54
2019-05-02T00:36:04.637Z,100366.72
2019-05-02T00:38:37.969Z,100358.21
2019-05-02T00:41:03.804Z,100362.52
2019-05-02T00:43:34.317Z,100360.41
2019-05-02T00:46:04.268Z,100360.41
2019-05-02T00:48:59.636Z,100358.63
2019-05-02T00:51:28.075Z,100353.13
2019-05-02T00:53:56.736Z,100353.54
2019-05-02T00:56:25.293Z,100346.66
2019-05-02T00:58:53.867Z,100348.73
2019-05-02T01:01:41.472Z,100343.62
2019-05-02T01:04:18.238Z,100345.14
2019-05-02T01:06:49.403Z,100335.86
2019-05-02T01:09:17.134Z,100337.38
2019-05-02T01:11:45.861Z,100329.30
2019-05-02T01:14:14.443Z,100325.70
2019-05-02T01:16:43.175Z,100326.77
2019-05-02T01:19:15.771Z,100322.83
2019-05-02T01:21:42.346Z,100327.01
2019-05-02T01:24:10.944Z,100326.76
2019-05-02T01:26:43.424Z,100316.00
2019-05-02T01:29:18.110Z,100320.45
2019-05-02T01:31:57.049Z,100322.52
2019-05-02T01:34:32.890Z,100318.63
2019-05-02T01:37:12.437Z,100316.28
2019-05-02T01:39:42.845Z,100312.61
2019-05-02T01:42:12.258Z,100311.09
2019-05-02T01:44:45.726Z,100306.52
2019-05-02T01:47:14.281Z,100309.75
2019-05-02T01:49:43.271Z,100306.55
2019-05-02T01:52:18.885Z,100306.90
2019-05-02T01:54:47.470Z,100300.94
2019-05-02T01:57:15.706Z,100299.99
2019-05-02T01:59:46.043Z,100299.17
2019-05-02T02:02:14.873Z,100307.63
2019-05-02T02:04:43.648Z,100301.30
2019-05-02T02:07:14.981Z,100298.39
2019-05-02T02:09:43.960Z,100294.72
2019-05-02T02:12:12.852Z,100301.17
2019-05-02T02:14:41.431Z,100297.81
2019-05-02T02:17:15.341Z,100299.56
2019-05-02T02:19:49.153Z,100289.50
2019-05-02T02:22:39.220Z,100292.48
2019-05-02T02:25:44.323Z,100292.83
2019-05-02T02:28:14.613Z,100291.23
2019-05-02T02:30:43.192Z,100290.34
2019-05-02T02:33:14.494Z,100295.41
2019-05-02T02:35:49.774Z,100295.56
2019-05-02T02:38:13.613Z,100288.30
2019-05-02T02:40:42.191Z,100291.15
2019-05-02T02:43:32.231Z,100283.72
2019-05-02T02:45:57.682Z,100289.36
2019-05-02T02:48:25.386Z,100284.37
2019-05-02T02:50:54.344Z,100290.36
2019-05-02T02:53:30.395Z,100285.05
2019-05-02T02:56:01.686Z,100280.91
2019-05-02T02:58:30.848Z,100286.43
2019-05-02T03:00:59.564Z,100286.14
2019-05-02T03:03:30.538Z,100287.62
2019-05-02T03:06:05.739Z,100282.25
2019-05-02T03:08:30.106Z,100281.52
2019-05-02T03:10:58.935Z,100277.69
2019-05-02T03:13:51.335Z,100277.96
2019-05-02T03:16:12.446Z,100279.14
2019-05-02T03:18:43.364Z,100276.84
2019-05-02T03:21:13.536Z,100282.62
2019-05-02T03:23:43.841Z,100273.02
2019-05-02T03:26:17.090Z,100267.41
2019-05-02T03:28:57.565Z,100280.20
2019-05-02T03:31:29.845Z,100277.83
2019-05-02T03:33:54.490Z,100266.71
2019-05-02T03:36:28.937Z,100266.16
2019-05-02T03:38:49.177Z,100271.44
2019-05-02T03:41:20.578Z,100266.03
2019-05-02T03:43:48.100Z,100262.00
2019-05-02T03:46:20.797Z,100264.91
2019-05-02T03:48:47.173Z,100265.62
2019-05-02T03:51:21.425Z,100263.27
2019-05-02T03:53:46.748Z,100258.45
2019-05-02T03:56:17.060Z,100262.84
2019-05-02T03:58:48.521Z,100256.80
2019-05-02T04:01:16.191Z,100264.12
2019-05-02T04:03:44.929Z,100265.94
2019-05-02T04:06:20.746Z,100258.97
2019-05-02T04:08:44.278Z,100260.73
2019-05-02T04:11:21.092Z,100262.66
2019-05-02T04:13:51.263Z,100265.66
2019-05-02T04:16:19.849Z,100261.81
2019-05-02T04:18:54.729Z,100264.95
2019-05-02T04:21:24.281Z,100266.33
2019-05-02T04:23:49.488Z,100263.72
2019-05-02T04:26:18.079Z,100265.38
2019-05-02T04:28:51.586Z,100263.79
2019-05-02T04:31:24.708Z,100265.52
2019-05-02T04:33:49.360Z,100277.22
2019-05-02T04:36:18.353Z,100274.80
2019-05-02T04:38:51.659Z,100274.80
2019-05-02T04:41:28.281Z,100277.06
2019-05-02T04:43:57.421Z,100272.36
2019-05-02T04:46:39.342Z,100270.84
2019-05-02T05:12:48.863Z,100263.33
2019-05-02T05:15:33.838Z,100265.43
2019-05-02T05:17:50.046Z,100269.95
2019-05-02T05:20:18.467Z,100271.10
2019-05-02T05:22:47.871Z,100274.45
2019-05-02T05:25:21.522Z,100271.95
2019-05-02T05:27:52.688Z,100279.10
2019-05-02T05:30:20.333Z,100274.61
2019-05-02T05:32:49.084Z,100273.70
2019-05-02T05:35:17.862Z,100274.23
2019-05-02T05:37:49.028Z,100269.59
2019-05-02T05:40:17.635Z,100275.63
2019-05-02T05:42:48.124Z,100274.99
2019-05-02T05:45:17.437Z,100276.12
2019-05-02T05:47:47.883Z,100270.28
2019-05-02T05:50:17.648Z,100270.66
2019-05-02T05:52:47.280Z,100276.61
2019-05-02T05:55:20.360Z,100268.25
2019-05-02T05:57:49.741Z,100268.25
2019-05-02T06:00:22.668Z,100268.39
2019-05-02T06:02:53.924Z,100261.43
2019-05-02T06:05:17.639Z,100255.41
2019-05-02T06:07:47.437Z,100253.05
2019-05-02T06:10:16.060Z,100257.69
2019-05-02T06:12:45.048Z,100256.84
2019-05-02T06:15:13.619Z,100247.98
2019-05-02T06:17:42.198Z,100256.03
2019-05-02T06:20:12.554Z,100256.98
2019-05-02T06:22:41.669Z,100250.45
2019-05-02T06:25:10.429Z,100247.41
2019-05-02T06:27:42.195Z,100253.16
2019-05-02T06:30:10.930Z,100251.30
2019-05-02T06:32:41.171Z,100249.71
2019-05-02T06:35:10.115Z,100248.05
2019-05-02T06:37:40.591Z,100246.23
2019-05-02T06:40:10.439Z,100248.16
2019-05-02T06:42:39.016Z,100239.43
2019-05-02T06:45:09.265Z,100235.09
2019-05-02T06:47:41.496Z,100227.19
2019-05-02T06:50:10.270Z,100236.55
2019-05-02T06:52:39.422Z,100232.91
2019-05-02T06:55:07.985Z,100226.40
2019-05-02T06:57:38.615Z,100218.61
2019-05-02T07:00:07.611Z,100216.81
2019-05-02T07:02:36.932Z,100217.94
2019-05-02T07:05:07.286Z,100217.09
2019-05-02T07:07:37.065Z,100212.73
2019-05-02T07:10:07.455Z,100213.06
2019-05-02T07:12:36.307Z,100216.91
2019-05-02T07:15:08.402Z,100220.94
2019-05-02T07:17:44.836Z,100214.78
2019-05-02T07:20:15.177Z,100216.25
2019-05-02T07:22:45.608Z,100220.47
2019-05-02T07:25:14.133Z,100219.87
2019-05-02T07:27:44.065Z,100216.91
2019-05-02T07:30:12.748Z,100220.47
2019-05-02T07:32:41.447Z,100219.66
2019-05-02T07:35:10.482Z,100217.81
2019-05-02T07:37:44.089Z,100220.23
2019-05-02T07:40:12.155Z,100223.86
2019-05-02T07:42:41.985Z,100225.61
2019-05-02T07:45:12.054Z,100226.52
2019-05-02T07:47:42.474Z,100217.76
2019-05-02T07:50:11.939Z,100222.95
2019-05-02T07:52:42.004Z,100226.51
2019-05-02T07:55:10.590Z,100223.02
2019-05-02T07:57:39.382Z,100223.58
2019-05-02T08:00:08.809Z,100223.32
2019-05-02T08:02:37.731Z,100223.84
2019-05-02T08:05:08.983Z,100224.67
2019-05-02T08:07:37.689Z,100218.98
2019-05-02T08:10:06.430Z,100224.45
2019-05-02T08:12:35.773Z,100216.17
2019-05-02T08:15:07.397Z,100220.79
2019-05-02T08:17:36.010Z,100215.44
2019-05-02T08:20:08.522Z,100214.44
2019-05-02T08:22:36.259Z,100214.54
2019-05-02T08:25:10.468Z,100221.50
2019-05-02T08:28:16.062Z,100218.77
2019-05-02T08:30:45.165Z,100213.22
2019-05-02T08:33:13.786Z,100220.15
2019-05-02T08:35:42.553Z,100218.12
2019-05-02T08:38:17.891Z,100215.14
2019-05-02T08:40:47.877Z,100218.80
2019-05-02T08:43:16.623Z,100221.97
2019-05-02T08:45:48.592Z,100221.97
2019-05-02T08:48:17.346Z,100225.12
2019-05-02T08:50:45.925Z,100224.34
2019-05-02T08:53:19.728Z,100223.27
2019-05-02T08:55:46.680Z,100225.23
2019-05-02T08:58:16.070Z,100215.16
2019-05-02T09:00:47.115Z,100217.92
2019-05-02T09:03:18.808Z,100216.89
2019-05-02T09:05:51.719Z,100215.81
2019-05-02T09:08:23.680Z,100215.81
2019-05-02T09:10:55.147Z,100206.34
2019-05-02T09:13:29.132Z,100206.34
2019-05-02T09:16:02.788Z,100215.05
2019-05-02T09:18:37.886Z,100211.23
2019-05-02T09:21:02.037Z,100211.23
2019-05-02T09:23:35.386Z,100216.53
2019-05-02T09:26:02.606Z,100214.13
2019-05-02T09:28:32.881Z,100215.47
2019-05-02T09:31:05.041Z,100215.47
2019-05-02T09:33:36.873Z,100217.39
2019-05-02T09:36:04.620Z,100223.30
2019-05-02T09:38:33.345Z,100213.98
2019-05-02T09:41:15.289Z,100210.64
2019-05-02T09:43:34.885Z,100201.05
2019-05-02T09:46:02.746Z,100202.91
2019-05-02T09:48:31.905Z,100207.81
2019-05-02T09:51:04.563Z,100201.98
2019-05-02T09:53:32.378Z,100204.16
2019-05-02T09:56:02.148Z,100204.91
2019-05-02T09:58:32.394Z,100199.94
2019-05-02T10:01:06.319Z,100206.16
2019-05-02T10:03:34.876Z,100195.94
2019-05-02T10:06:03.443Z,100202.05
2019-05-02T10:08:32.226Z,100203.17
2019-05-02T10:11:02.825Z,100201.55
2019-05-02T10:13:32.869Z,100199.34
2019-05-02T10:16:03.003Z,100194.92
2019-05-02T10:18:33.016Z,100198.95
2019-05-02T10:21:03.280Z,100187.03
2019-05-02T10:23:33.616Z,100190.30
2019-05-02T10:26:02.849Z,100184.20
2019-05-02T10:28:31.819Z,100183.14
2019-05-02T10:31:02.284Z,100178.98
2019-05-02T10:33:33.630Z,100172.63
2019-05-02T10:36:02.682Z,100181.24
2019-05-02T10:38:33.045Z,100175.98
2019-05-02T10:41:04.750Z,100163.27
2019-05-02T10:43:33.428Z,100165.50
2019-05-02T10:46:08.854Z,100160.40
2019-05-02T10:48:42.112Z,100154.91
2019-05-02T10:51:28.442Z,100153.68
2019-05-02T10:53:59.106Z,100157.54
2019-05-02T10:56:29.343Z,100154.77
2019-05-02T10:58:57.899Z,100156.00
2019-05-02T11:01:28.953Z,100160.08
2019-05-02T11:03:58.858Z,100148.58
2019-05-02T11:06:29.527Z,100144.17
2019-05-02T11:08:58.113Z,100150.67
2019-05-02T11:11:28.329Z,100143.98
2019-05-02T11:14:06.566Z,100144.63
2019-05-02T11:17:01.784Z,100134.90
2019-05-02T11:19:37.915Z,100127.12
2019-05-02T11:22:07.743Z,100125.48
2019-05-02T11:24:37.989Z,100122.16
2019-05-02T11:27:08.218Z,100122.26
2019-05-02T11:29:38.601Z,100121.70
2019-05-02T11:32:07.336Z,100114.47
2019-05-02T11:34:35.904Z,100098.70
2019-05-02T11:37:04.908Z,100097.21
2019-05-02T11:39:44.610Z,100098.52
2019-05-02T11:42:06.101Z,100093.14
2019-05-02T11:44:37.020Z,100088.74
2019-05-02T11:47:05.797Z,100085.11
2019-05-02T11:49:34.673Z,100079.37
2019-05-02T11:52:04.702Z,100072.69
2019-05-02T11:54:39.284Z,100076.12
2019-05-02T11:57:05.726Z,100028.00
2019-05-02T11:59:34.272Z,100069.14
2019-05-02T12:02:22.050Z,100063.00
2019-05-02T12:04:55.526Z,100060.23
2019-05-02T12:07:24.272Z,100061.31
2019-05-02T12:09:57.142Z,100060.94
2019-05-02T12:12:27.308Z,100063.38
2019-05-02T12:14:54.416Z,100055.16
2019-05-02T12:17:23.310Z,100051.40
2019-05-02T12:19:52.375Z,100047.08
2019-05-02T12:22:22.620Z,100050.66
2019-05-02T12:24:53.067Z,100043.02
2019-05-02T12:27:22.100Z,100042.62
2019-05-02T12:29:57.753Z,100034.63
2019-05-02T12:32:22.478Z,100035.48
2019-05-02T12:34:52.990Z,100022.59
2019-05-02T12:37:21.974Z,100020.09
2019-05-02T12:39:51.706Z,100014.94
2019-05-02T12:42:21.322Z,100018.23
2019-05-02T12:44:53.279Z,100013.34
2019-05-02T12:47:22.525Z,100015.73
2019-05-02T12:49:53.877Z,100013.48
2019-05-02T12:52:22.658Z,100016.34
2019-05-02T12:54:52.965Z,100010.86
2019-05-02T12:57:22.051Z,100011.73
2019-05-02T12:59:52.492Z,100009.10
2019-05-02T13:02:42.265Z,100004.61
2019-05-02T13:05:13.238Z,100005.70
2019-05-02T13:07:42.770Z,100003.44
2019-05-02T13:10:15.621Z,99995.70
2019-05-02T13:12:44.617Z,99990.30
2019-05-02T13:15:13.688Z,99984.52
2019-05-02T13:17:48.407Z,99979.65
2019-05-02T13:20:14.372Z,99974.49
2019-05-02T13:23:03.432Z,99972.14
2019-05-02T13:25:36.878Z,99962.60
2019-05-02T13:28:03.926Z,99957.00
2019-05-02T13:30:46.610Z,99955.04
2019-05-02T13:33:22.729Z,99952.23
2019-05-02T13:35:55.130Z,99951.74
2019-05-02T13:38:23.893Z,99943.73
2019-05-02T13:40:52.437Z,99946.56
2019-05-02T13:43:27.112Z,99939.89
2019-05-02T13:46:02.674Z,99941.53
2019-05-02T13:48:32.260Z,99938.10
2019-05-02T13:51:03.765Z,99931.64
2019-05-02T13:53:35.191Z,99934.30
2019-05-02T13:56:34.918Z,99934.88
2019-05-02T13:59:03.490Z,99930.19
2019-05-02T14:01:35.493Z,99917.69
2019-05-02T14:04:10.079Z,99915.92
2019-05-02T14:06:37.943Z,99919.22
2019-05-02T14:09:29.506Z,99909.97
2019-05-02T14:12:17.081Z,99913.54
2019-05-02T14:14:45.832Z,99913.58
2019-05-02T14:17:16.371Z,99909.49
2019-05-02T14:19:45.475Z,99905.78
2019-05-02T14:22:14.312Z,99904.66
2019-05-02T14:24:44.585Z,99898.98
2019-05-02T14:27:17.123Z,99893.66
2019-05-02T14:29:45.316Z,99896.45
2019-05-02T14:32:23.738Z,99899.69
2019-05-02T14:35:02.723Z,99895.80
2019-05-02T14:37:32.621Z,99887.72
2019-05-02T14:40:11.680Z,99890.47
2019-05-02T14:42:41.885Z,99889.17
2019-05-02T14:45:27.181Z,99887.95
2019-05-02T14:47:49.701Z,99882.89
2019-05-02T14:50:24.271Z,99883.22
2019-05-02T14:52:48.719Z,99878.22
2019-05-02T14:55:22.261Z,99882.95
2019-05-02T14:57:49.612Z,99876.89
2019-05-02T15:00:22.215Z,99875.45
2019-05-02T15:02:52.136Z,99871.21
2019-05-02T15:05:27.975Z,99872.36
2019-05-02T15:07:56.845Z,99867.77
2019-05-02T15:10:23.622Z,99870.46
2019-05-02T15:12:59.617Z,99867.95
2019-05-02T15:15:28.037Z,99869.81
2019-05-02T15:17:56.852Z,99871.02
2019-05-02T15:20:36.599Z,99870.90
2019-05-02T15:22:57.233Z,99864.20
2019-05-02T15:25:27.283Z,99870.55
2019-05-02T15:27:59.946Z,99860.84
2019-05-02T15:30:26.843Z,99859.12
2019-05-02T15:33:07.323Z,99859.42
2019-05-02T15:35:57.204Z,99862.70
2019-05-02T15:38:28.306Z,99859.62
2019-05-02T15:40:59.415Z,99861.41
2019-05-02T15:43:28.928Z,99856.61
2019-05-02T15:45:57.484Z,99870.91
2019-05-02T15:48:27.713Z,99887.55
2019-05-02T15:51:00.026Z,99893.73
2019-05-02T15:53:39.177Z,99897.75
2019-05-02T15:56:06.334Z,99889.47
2019-05-02T15:58:35.224Z,99886.58
2019-05-02T16:01:25.062Z,99893.23
2019-05-02T16:03:55.240Z,99894.67
2019-05-02T16:06:31.589Z,99893.20
2019-05-02T16:08:58.670Z,99900.81
2019-05-02T16:11:27.230Z,99906.92
2019-05-02T16:13:58.055Z,99907.49
2019-05-02T16:16:26.966Z,99906.38
2019-05-02T16:18:55.538Z,99909.70
2019-05-02T16:21:32.586Z,99919.37
2019-05-02T16:24:22.960Z,99911.39
2019-05-02T16:26:53.153Z,99913.01
2019-05-02T16:29:26.815Z,99911.69
2019-05-02T16:31:59.815Z,99911.80
2019-05-02T16:34:33.822Z,99914.06
2019-05-02T16:37:13.447Z,99909.59
2019-05-02T16:39:49.384Z,99912.15
2019-05-02T16:42:13.308Z,99912.64
2019-05-02T16:44:42.944Z,99910.83
2019-05-02T16:47:13.987Z,99905.91
2019-05-02T16:49:42.742Z,99905.81
2019-05-02T16:52:12.767Z,99901.25
2019-05-02T16:54:43.840Z,99901.74
2019-05-02T16:57:17.427Z,99901.26
2019-05-02T16:59:43.275Z,99895.85
2019-05-02T17:02:12.292Z,99906.37
2019-05-02T17:04:42.691Z,99900.67
2019-05-02T17:07:16.734Z,99902.00
2019-05-02T17:10:08.483Z,99895.66
2019-05-02T17:12:35.561Z,99892.33
2019-05-02T17:15:26.143Z,99891.09
2019-05-02T17:17:54.429Z,99882.16
2019-05-02T17:20:23.047Z,99877.34
2019-05-02T17:22:57.206Z,99875.44
2019-05-02T17:25:21.910Z,99878.39
2019-05-02T17:27:53.476Z,99886.73
2019-05-02T17:30:22.494Z,99884.87
2019-05-02T17:32:51.441Z,99882.75
2019-05-02T17:35:22.091Z,99885.50
2019-05-02T17:37:52.389Z,99896.83
2019-05-02T17:40:25.891Z,99892.74
2019-05-02T17:42:57.162Z,99896.08
2019-05-02T17:45:25.853Z,99900.92
2019-05-02T17:47:54.591Z,99901.22
2019-05-02T17:50:59.274Z,99897.80
2019-05-02T17:53:26.233Z,99898.34
2019-05-02T17:55:57.101Z,99895.90
2019-05-02T17:58:27.224Z,99893.83
2019-05-02T18:01:02.561Z,99895.69
2019-05-02T18:03:35.244Z,99894.58
2019-05-02T18:06:02.673Z,99904.03
2019-05-02T18:08:32.327Z,99896.27
2019-05-02T18:11:02.761Z,99897.95
2019-05-02T18:13:33.811Z,99897.70
2019-05-02T18:16:02.828Z,99892.50
2019-05-02T18:18:37.576Z,99895.27
2019-05-02T18:21:04.060Z,99895.51
2019-05-02T18:23:32.629Z,99903.25
2019-05-02T18:26:06.166Z,99897.38
2019-05-02T18:28:45.547Z,99889.98
2019-05-02T18:31:05.869Z,99885.83
2019-05-02T18:33:35.891Z,99885.83
2019-05-02T18:36:04.895Z,99886.01
2019-05-02T18:38:35.216Z,99892.23
2019-05-02T18:41:06.161Z,99892.91
2019-05-02T18:43:35.982Z,99895.34
2019-05-02T18:46:07.571Z,99899.04
2019-05-02T18:48:36.499Z,99903.95
2019-05-02T18:51:08.226Z,99907.56
2019-05-02T18:53:42.333Z,99910.12
2019-05-02T18:56:12.436Z,99911.44
2019-05-02T18:58:45.099Z,99912.38
2019-05-02T19:01:17.523Z,99915.53
2019-05-02T19:03:47.053Z,99911.56
2019-05-02T19:06:15.528Z,99916.16
2019-05-02T19:08:48.518Z,99911.83
2019-05-02T19:11:15.526Z,99928.47
2019-05-02T19:13:46.698Z,99924.98
2019-05-02T19:16:19.413Z,99924.98
2019-05-02T19:18:49.045Z,99914.75
2019-05-02T19:21:18.925Z,99908.41
2019-05-02T19:23:47.961Z,99909.61
2019-05-02T19:26:17.473Z,99908.19
2019-05-02T19:29:02.306Z,99908.19
2019-05-02T19:31:46.130Z,99917.19
2019-05-02T19:34:16.944Z,99919.38
2019-05-02T19:36:46.650Z,99924.89
2019-05-02T19:39:18.455Z,99916.41
2019-05-02T19:41:47.041Z,99911.70
2019-05-02T19:44:22.943Z,99906.72
2019-05-02T19:46:46.854Z,99911.44
2019-05-02T19:49:17.746Z,99919.77
2019-05-02T19:51:55.892Z,99919.52
2019-05-02T19:54:22.073Z,99919.73
2019-05-02T19:56:54.827Z,99924.47
2019-05-02T19:59:26.465Z,99932.05
2019-05-02T20:01:57.018Z,99931.35
2019-05-02T20:04:27.579Z,99928.12
2019-05-02T20:07:00.772Z,99929.61
2019-05-02T20:09:32.235Z,99923.12
2019-05-02T20:12:06.005Z,99920.29
2019-05-02T20:14:32.104Z,99917.37
2019-05-02T20:17:05.290Z,99923.54
2019-05-02T20:19:36.218Z,99920.41
2019-05-02T20:22:13.476Z,99920.59
2019-05-02T20:25:03.767Z,99927.88
2019-05-02T20:27:32.952Z,99920.41
2019-05-02T20:30:02.951Z,99917.28
2019-05-02T20:32:38.038Z,99929.77
2019-05-02T20:35:06.705Z,99925.41
2019-05-02T20:37:38.885Z,99934.19
2019-05-02T20:40:07.481Z,99935.78
2019-05-02T20:42:37.743Z,99935.78
2019-05-02T20:45:06.491Z,99943.40
2019-05-02T20:47:35.372Z,99935.91
2019-05-02T20:50:05.892Z,99935.91
2019-05-02T20:52:37.072Z,99941.47
2019-05-02T20:55:06.272Z,99940.06
2019-05-02T20:57:37.895Z,99948.18
2019-05-02T21:00:08.122Z,99937.20
2019-05-02T21:02:38.364Z,99941.92
2019-05-02T21:05:07.317Z,99945.14
2019-05-02T21:07:52.500Z,99943.20
2019-05-02T21:10:28.040Z,99943.81
2019-05-02T21:12:58.805Z,99943.81
2019-05-02T21:15:32.340Z,99946.47
2019-05-02T21:18:02.300Z,99945.77
2019-05-02T21:20:32.557Z,99935.27
2019-05-02T21:23:01.977Z,99945.86
2019-05-02T21:25:32.888Z,99943.56
2019-05-02T21:28:03.213Z,99931.44
2019-05-02T21:30:34.204Z,99948.86
2019-05-02T21:33:03.119Z,99951.90
2019-05-02T21:35:31.956Z,99955.17
2019-05-02T21:38:01.035Z,99966.91
2019-05-02T21:40:30.108Z,99974.41
2019-05-02T21:42:59.001Z,99972.78
2019-05-02T21:45:27.723Z,99986.59
2019-05-02T21:47:56.703Z,99993.25
2019-05-02T21:50:32.964Z,99984.73
2019-05-02T21:53:32.757Z,99993.39
2019-05-02T21:56:12.325Z,100001.41
2019-05-02T21:59:00.107Z,100001.41
2019-05-02T22:01:29.079Z,100004.28
2019-05-02T22:03:57.631Z,100004.28
2019-05-02T22:06:29.333Z,100008.78
2019-05-02T22:08:57.907Z,100005.11
2019-05-02T22:11:26.442Z,100010.06
2019-05-02T22:13:55.347Z,100014.59
2019-05-02T22:16:26.047Z,100011.75
2019-05-02T22:18:54.617Z,100022.06
2019-05-02T22:21:23.554Z,100023.36
2019-05-02T22:23:52.160Z,100018.11
2019-05-02T22:26:22.057Z,100017.46
2019-05-02T22:28:53.741Z,100021.05
2019-05-02T22:31:22.789Z,100034.67
2019-05-02T22:33:53.031Z,100040.24
2019-05-02T22:36:22.285Z,100033.98
2019-05-02T22:38:58.937Z,100039.19
2019-05-02T22:41:30.102Z,100040.91
2019-05-02T22:44:01.917Z,100048.28
2019-05-02T22:46:43.989Z,100050.19
2019-05-02T22:49:14.679Z,100049.53
2019-05-02T22:51:43.424Z,100057.77
2019-05-02T22:54:24.033Z,100055.86
2019-05-02T22:56:44.072Z,100051.39
2019-05-02T22:59:12.674Z,100055.86
2019-05-02T23:01:42.183Z,100060.11
2019-05-02T23:04:12.836Z,100060.17
2019-05-02T23:06:43.776Z,100058.05
2019-05-02T23:09:12.760Z,100059.84
2019-05-02T23:11:42.723Z,100063.91
2019-05-02T23:14:13.548Z,100060.78
2019-05-02T23:16:46.815Z,100062.83
2019-05-02T23:19:15.386Z,100055.96
2019-05-02T23:21:43.948Z,100068.00
2019-05-02T23:24:23.768Z,100064.19
2019-05-02T23:27:14.204Z,100063.13
2019-05-02T23:29:45.134Z,100069.00
2019-05-02T23:32:15.285Z,100069.45
2019-05-02T23:34:45.581Z,100063.00
2019-05-02T23:37:14.448Z,100063.38
2019-05-02T23:39:46.543Z,100060.66
2019-05-02T23:42:15.491Z,100068.28
2019-05-02T23:44:44.049Z,100064.91
2019-05-02T23:47:13.312Z,100068.53
2019-05-02T23:49:42.691Z,100074.44
2019-05-02T23:52:11.762Z,100070.63
2019-05-02T23:54:49.905Z,100077.69
2019-05-02T23:57:12.110Z,100070.03
2019-05-02T23:59:42.405Z,100066.70
